createdAt,value
2018-12-03T00:00:51.579Z,42.3
2018-12-03T00:01:51.648Z,27.3
2018-12-03T00:02:51.666Z,30.3
2018-12-03T00:03:51.687Z,39.3
2018-12-03T00:04:51.613Z,30.3
2018-12-03T00:05:51.591Z,24.3
2018-12-03T00:06:51.618Z,27.3
2018-12-03T00:07:51.593Z,27.3
2018-12-03T00:08:51.676Z,24.3
2018-12-03T00:09:56.489Z,24.3
2018-12-03T00:10:51.634Z,18.3
2018-12-03T00:11:51.586Z,27.3
2018-12-03T00:12:51.610Z,39.3
2018-12-03T00:13:51.614Z,36.3
2018-12-03T00:14:51.574Z,27.3
2018-12-03T00:15:51.679Z,30.3
2018-12-03T00:16:51.555Z,39.3
2018-12-03T00:17:51.585Z,30.3
2018-12-03T00:18:51.589Z,27.3
2018-12-03T00:19:51.580Z,33.3
2018-12-03T00:20:51.685Z,45.3
2018-12-03T00:21:51.567Z,39.3
2018-12-03T00:22:51.587Z,42.3
2018-12-03T00:23:51.592Z,42.3
2018-12-03T00:24:51.597Z,42.3
2018-12-03T00:25:51.732Z,30.3
2018-12-03T00:26:51.572Z,30.3
2018-12-03T00:27:51.556Z,30.3
2018-12-03T00:28:51.558Z,27.3
2018-12-03T00:29:51.607Z,33.3
2018-12-03T00:30:51.680Z,42.3
2018-12-03T00:31:51.611Z,36.3
2018-12-03T00:32:52.162Z,33.3
2018-12-03T00:33:51.562Z,33.3
2018-12-03T00:34:51.671Z,36.3
2018-12-03T00:35:51.565Z,30.3
2018-12-03T00:36:51.639Z,36.3
2018-12-03T00:37:51.563Z,36.3
2018-12-03T00:38:51.554Z,27.3
2018-12-03T00:39:51.596Z,30.3
2018-12-03T00:40:51.576Z,30.3
2018-12-03T00:41:51.711Z,36.3
2018-12-03T00:42:51.638Z,27.3
2018-12-03T00:43:51.628Z,36.3
2018-12-03T00:44:51.590Z,30.3
2018-12-03T00:45:51.596Z,42.3
2018-12-03T00:46:51.672Z,42.3
2018-12-03T00:47:51.656Z,39.3
2018-12-03T00:48:51.589Z,45.3
2018-12-03T00:49:51.560Z,45.3
2018-12-03T00:50:51.595Z,57.3
2018-12-03T00:51:51.669Z,45.3
2018-12-03T00:52:51.709Z,42.3
2018-12-03T00:53:51.618Z,39.3
2018-12-03T00:54:51.548Z,51.3
2018-12-03T00:55:51.571Z,51.3
2018-12-03T00:56:51.573Z,42.3
2018-12-03T00:57:51.680Z,48.3
2018-12-03T00:58:51.585Z,39.3
2018-12-03T00:59:51.595Z,54.3
2018-12-03T01:00:51.546Z,45.3
2018-12-03T01:01:51.578Z,39.3
2018-12-03T01:02:51.778Z,42.3
2018-12-03T01:03:51.586Z,45.3
2018-12-03T01:04:51.599Z,60.3
2018-12-03T01:05:51.573Z,51.3
2018-12-03T01:06:51.558Z,48.3
2018-12-03T01:07:51.656Z,45.3
2018-12-03T01:08:51.587Z,45.3
2018-12-03T01:09:51.547Z,48.3
2018-12-03T01:10:51.663Z,45.3
2018-12-03T01:11:51.537Z,39.3
2018-12-03T01:12:51.594Z,45.3
2018-12-03T01:13:51.557Z,45.3
2018-12-03T01:14:51.582Z,24.3
2018-12-03T01:15:51.620Z,36.3
2018-12-03T01:16:51.571Z,27.3
2018-12-03T01:17:51.556Z,24.3
2018-12-03T01:18:51.586Z,24.3
2018-12-03T01:19:51.574Z,36.3
2018-12-03T01:20:51.725Z,27.3
2018-12-03T01:21:51.641Z,33.3
2018-12-03T01:22:51.571Z,30.3
2018-12-03T01:23:51.561Z,36.3
2018-12-03T01:24:51.662Z,33.3
2018-12-03T01:25:51.589Z,30.3
2018-12-03T01:26:51.596Z,33.3
2018-12-03T01:27:51.563Z,24.3
2018-12-03T01:28:51.555Z,33.3
2018-12-03T01:29:51.643Z,30.3
2018-12-03T01:30:51.641Z,42.3
2018-12-03T01:31:51.601Z,36.3
2018-12-03T01:32:51.592Z,33.3
2018-12-03T01:33:51.552Z,48.3
2018-12-03T01:34:51.604Z,39.3
2018-12-03T01:35:51.664Z,45.3
2018-12-03T01:36:51.575Z,36.3
2018-12-03T01:37:51.647Z,45.3
2018-12-03T01:38:51.545Z,45.3
2018-12-03T01:39:51.558Z,48.3
2018-12-03T01:40:51.566Z,48.3
2018-12-03T01:41:51.580Z,36.3
2018-12-03T01:42:51.656Z,33.3
2018-12-03T01:43:51.559Z,30.3
2018-12-03T01:44:51.572Z,42.3
2018-12-03T01:45:51.559Z,36.3
2018-12-03T01:46:51.639Z,39.3
2018-12-03T01:47:51.573Z,36.3
2018-12-03T01:48:51.556Z,33.3
2018-12-03T01:49:51.537Z,36.3
2018-12-03T01:50:51.563Z,45.3
2018-12-03T01:51:51.658Z,42.3
2018-12-03T01:52:51.566Z,39.3
2018-12-03T01:53:52.422Z,45.3
2018-12-03T01:54:51.542Z,36.3
2018-12-03T01:55:51.558Z,24.3
2018-12-03T01:56:51.646Z,36.3
2018-12-03T01:57:51.542Z,24.3
2018-12-03T01:58:51.574Z,33.3
2018-12-03T01:59:51.572Z,48.3
2018-12-03T02:00:51.602Z,30.3
2018-12-03T02:01:51.563Z,33.3
2018-12-03T02:02:51.688Z,39.3
2018-12-03T02:03:51.608Z,42.3
2018-12-03T02:04:51.546Z,42.3
2018-12-03T02:05:51.561Z,42.3
2018-12-03T02:06:51.644Z,36.3
2018-12-03T02:07:51.633Z,45.3
2018-12-03T02:08:51.599Z,42.3
2018-12-03T02:09:51.558Z,42.3
2018-12-03T02:10:51.626Z,45.3
2018-12-03T02:11:51.548Z,48.3
2018-12-03T02:12:51.578Z,48.3
2018-12-03T02:13:51.548Z,48.3
2018-12-03T02:14:51.572Z,48.3
2018-12-03T02:15:51.632Z,36.3
2018-12-03T02:16:51.610Z,54.3
2018-12-03T02:17:51.595Z,42.3
2018-12-03T02:18:51.652Z,42.3
2018-12-03T02:19:51.565Z,54.3
2018-12-03T02:20:51.638Z,54.3
2018-12-03T02:21:52.377Z,48.3
2018-12-03T02:22:51.558Z,42.3
2018-12-03T02:23:51.631Z,63.4
2018-12-03T02:24:51.574Z,54.3
2018-12-03T02:25:51.549Z,39.3
2018-12-03T02:26:51.668Z,66.4
2018-12-03T02:27:51.536Z,60.3
2018-12-03T02:28:51.545Z,42.3
2018-12-03T02:29:51.557Z,57.3
2018-12-03T02:30:51.567Z,60.3
2018-12-03T02:31:51.637Z,63.4
2018-12-03T02:33:01.498Z,66.4
2018-12-03T02:33:51.560Z,72.4
2018-12-03T02:34:51.568Z,63.4
2018-12-03T02:35:51.582Z,81.4
2018-12-03T02:36:51.618Z,54.3
2018-12-03T02:37:51.674Z,57.3
2018-12-03T02:38:51.545Z,57.3
2018-12-03T02:39:51.565Z,66.4
2018-12-03T02:40:51.557Z,57.3
2018-12-03T02:41:51.585Z,54.3
2018-12-03T02:42:51.661Z,51.3
2018-12-03T02:43:51.539Z,51.3
2018-12-03T02:44:51.495Z,51.3
2018-12-03T02:45:51.548Z,66.4
2018-12-03T02:46:51.632Z,63.4
2018-12-03T02:47:51.549Z,42.3
2018-12-03T02:48:51.621Z,51.3
2018-12-03T02:49:51.592Z,39.3
2018-12-03T02:50:51.556Z,42.3
2018-12-03T02:51:51.586Z,51.3
2018-12-03T02:52:51.574Z,54.3
2018-12-03T02:53:51.532Z,45.3
2018-12-03T02:54:51.639Z,45.3
2018-12-03T02:55:51.593Z,45.3
2018-12-03T02:56:51.549Z,45.3
2018-12-03T02:57:51.523Z,42.3
2018-12-03T02:58:51.554Z,45.3
2018-12-03T02:59:51.622Z,48.3
2018-12-03T03:00:51.526Z,48.3
2018-12-03T03:01:51.637Z,45.3
2018-12-03T03:02:51.574Z,42.3
2018-12-03T03:03:51.525Z,42.3
2018-12-03T03:04:51.626Z,45.3
2018-12-03T03:05:51.513Z,45.3
2018-12-03T03:06:51.521Z,48.3
2018-12-03T03:07:51.546Z,27.3
2018-12-03T03:08:51.558Z,30.3
2018-12-03T03:09:51.645Z,30.3
2018-12-03T03:10:51.592Z,33.3
2018-12-03T03:11:51.596Z,36.3
2018-12-03T03:12:51.558Z,30.3
2018-12-03T03:13:51.534Z,48.3
2018-12-03T03:14:51.540Z,30.3
2018-12-03T03:15:51.569Z,36.3
2018-12-03T03:16:51.606Z,36.3
2018-12-03T03:17:51.565Z,33.3
2018-12-03T03:18:51.537Z,30.3
2018-12-03T03:19:51.625Z,33.3
2018-12-03T03:20:51.546Z,36.3
2018-12-03T03:21:51.607Z,45.3
2018-12-03T03:22:51.532Z,36.3
2018-12-03T03:23:51.606Z,42.3
2018-12-03T03:24:51.537Z,36.3
2018-12-03T03:25:51.535Z,42.3
2018-12-03T03:26:51.585Z,45.3
2018-12-03T03:27:51.511Z,36.3
2018-12-03T03:28:51.549Z,39.3
2018-12-03T03:29:51.637Z,36.3
2018-12-03T03:30:51.553Z,36.3
2018-12-03T03:31:51.572Z,36.3
2018-12-03T03:32:51.630Z,45.3
2018-12-03T03:33:51.565Z,45.3
2018-12-03T03:34:51.542Z,36.3
2018-12-03T03:35:51.544Z,30.3
2018-12-03T03:36:51.598Z,27.3
2018-12-03T03:37:51.561Z,36.3
2018-12-03T03:38:51.503Z,33.3
2018-12-03T03:39:51.540Z,24.3
2018-12-03T03:40:51.544Z,33.3
2018-12-03T03:41:51.613Z,27.3
2018-12-03T03:42:51.565Z,33.3
2018-12-03T03:43:51.526Z,30.3
2018-12-03T03:44:51.560Z,24.3
2018-12-03T03:45:51.542Z,24.3
2018-12-03T03:46:51.614Z,27.3
2018-12-03T03:47:51.517Z,33.3
2018-12-03T03:48:51.631Z,24.3
2018-12-03T03:49:51.504Z,30.3
2018-12-03T03:50:51.572Z,36.3
2018-12-03T03:51:51.543Z,36.3
2018-12-03T03:52:51.619Z,33.3
2018-12-03T03:53:51.540Z,33.3
2018-12-03T03:54:51.505Z,36.3
2018-12-03T03:55:51.505Z,36.3
2018-12-03T03:56:51.516Z,36.3
2018-12-03T03:57:51.597Z,33.3
2018-12-03T03:58:51.616Z,36.3
2018-12-03T03:59:51.537Z,39.3
2018-12-03T04:00:51.513Z,42.3
2018-12-03T04:01:51.548Z,66.4
2018-12-03T04:02:52.020Z,60.3
2018-12-03T04:03:51.585Z,51.3
2018-12-03T04:04:51.525Z,60.3
2018-12-03T04:05:51.469Z,54.3
2018-12-03T04:06:51.530Z,60.3
2018-12-03T04:07:51.556Z,51.3
2018-12-03T04:08:51.578Z,45.3
2018-12-03T04:09:51.620Z,39.3
2018-12-03T04:10:51.561Z,48.3
2018-12-03T04:11:51.492Z,33.3
2018-12-03T04:12:51.532Z,36.3
2018-12-03T04:13:51.506Z,36.3
2018-12-03T04:14:51.578Z,42.3
2018-12-03T04:15:51.554Z,39.3
2018-12-03T04:16:51.465Z,45.3
2018-12-03T04:17:51.551Z,48.3
2018-12-03T04:18:51.537Z,54.3
2018-12-03T04:19:51.596Z,48.3
2018-12-03T04:20:51.531Z,54.3
2018-12-03T04:21:51.550Z,42.3
2018-12-03T04:22:51.502Z,54.3
2018-12-03T04:23:51.513Z,60.3
2018-12-03T04:24:51.610Z,45.3
2018-12-03T04:25:51.673Z,45.3
2018-12-03T04:26:51.556Z,33.3
2018-12-03T04:27:51.510Z,39.3
2018-12-03T04:28:51.534Z,36.3
2018-12-03T04:29:51.607Z,33.3
2018-12-03T04:30:51.587Z,36.3
2018-12-03T04:31:51.525Z,36.3
2018-12-03T04:32:51.571Z,33.3
2018-12-03T04:33:51.616Z,36.3
2018-12-03T04:34:51.534Z,51.3
2018-12-03T04:35:51.508Z,33.3
2018-12-03T04:36:51.516Z,39.3
2018-12-03T04:37:51.553Z,48.3
2018-12-03T04:38:51.475Z,36.3
2018-12-03T04:39:51.519Z,36.3
2018-12-03T04:40:51.609Z,33.3
2018-12-03T04:41:51.521Z,30.3
2018-12-03T04:42:51.540Z,39.3
2018-12-03T04:43:51.498Z,36.3
2018-12-03T04:44:51.471Z,54.3
2018-12-03T04:45:51.615Z,45.3
2018-12-03T04:46:51.546Z,36.3
2018-12-03T04:47:52.144Z,51.3
2018-12-03T04:48:51.509Z,42.3
2018-12-03T04:49:51.479Z,45.3
2018-12-03T04:50:51.572Z,33.3
2018-12-03T04:51:51.563Z,48.3
2018-12-03T04:52:51.599Z,45.3
2018-12-03T04:53:51.493Z,45.3
2018-12-03T04:54:51.515Z,60.3
2018-12-03T04:55:51.557Z,36.3
2018-12-03T04:56:51.517Z,36.3
2018-12-03T04:57:51.592Z,36.3
2018-12-03T04:58:51.510Z,30.3
2018-12-03T04:59:51.545Z,54.3
2018-12-03T05:00:51.468Z,45.3
2018-12-03T05:01:51.521Z,39.3
2018-12-03T05:02:51.580Z,48.3
2018-12-03T05:03:51.496Z,48.3
2018-12-03T05:04:51.509Z,75.4
2018-12-03T05:05:51.483Z,57.3
2018-12-03T05:06:52.873Z,60.3
2018-12-03T05:07:51.497Z,51.3
2018-12-03T05:08:51.486Z,141.6
2018-12-03T05:09:51.537Z,75.4
2018-12-03T05:10:51.496Z,63.4
2018-12-03T05:11:51.581Z,69.4
2018-12-03T05:12:51.538Z,33.3
2018-12-03T05:13:51.515Z,60.3
2018-12-03T05:14:51.571Z,48.3
2018-12-03T05:15:51.512Z,48.3
2018-12-03T05:16:51.505Z,54.3
2018-12-03T05:17:51.505Z,54.3
2018-12-03T05:18:51.513Z,42.3
2018-12-03T05:19:51.589Z,48.3
2018-12-03T05:20:51.525Z,45.3
2018-12-03T05:21:51.473Z,51.3
2018-12-03T05:22:51.585Z,51.3
2018-12-03T05:23:51.481Z,69.4
2018-12-03T05:24:51.586Z,45.3
2018-12-03T05:25:51.497Z,57.3
2018-12-03T05:26:51.485Z,48.3
2018-12-03T05:27:51.476Z,57.3
2018-12-03T05:28:51.512Z,48.3
2018-12-03T05:29:51.575Z,63.4
2018-12-03T05:30:51.508Z,51.3
2018-12-03T05:31:51.497Z,51.3
2018-12-03T05:32:51.476Z,54.3
2018-12-03T05:33:51.482Z,39.3
2018-12-03T05:34:51.516Z,54.3
2018-12-03T05:35:51.473Z,39.3
2018-12-03T05:36:51.531Z,39.3
2018-12-03T05:37:51.581Z,45.3
2018-12-03T05:38:51.551Z,33.3
2018-12-03T05:39:51.515Z,51.3
2018-12-03T05:40:51.500Z,42.3
2018-12-03T05:41:51.504Z,57.3
2018-12-03T05:42:51.597Z,54.3
2018-12-03T05:43:51.477Z,54.3
2018-12-03T05:44:51.491Z,54.3
2018-12-03T05:45:52.987Z,42.3
2018-12-03T05:46:51.477Z,63.4
2018-12-03T05:47:51.469Z,48.3
2018-12-03T05:48:51.494Z,48.3
2018-12-03T05:49:51.472Z,57.3
2018-12-03T05:50:51.555Z,57.3
2018-12-03T05:51:51.474Z,45.3
2018-12-03T05:52:51.551Z,45.3
2018-12-03T05:53:51.482Z,39.3
2018-12-03T05:54:51.487Z,45.3
2018-12-03T05:55:51.509Z,51.3
2018-12-03T05:56:51.513Z,39.3
2018-12-03T05:57:51.591Z,48.3
2018-12-03T05:58:51.494Z,60.3
2018-12-03T05:59:51.596Z,48.3
2018-12-03T06:00:51.443Z,48.3
2018-12-03T06:01:51.559Z,33.3
2018-12-03T06:02:51.530Z,48.3
2018-12-03T06:03:51.471Z,51.3
2018-12-03T06:04:51.643Z,45.3
2018-12-03T06:05:51.709Z,42.3
2018-12-03T06:06:51.521Z,45.3
2018-12-03T06:07:51.489Z,36.3
2018-12-03T06:08:51.506Z,48.3
2018-12-03T06:09:51.590Z,51.3
2018-12-03T06:10:51.461Z,60.3
2018-12-03T06:11:51.512Z,54.3
2018-12-03T06:12:51.510Z,45.3
2018-12-03T06:13:51.490Z,45.3
2018-12-03T06:14:51.496Z,42.3
2018-12-03T06:15:51.504Z,48.3
2018-12-03T06:16:51.559Z,54.3
2018-12-03T06:17:51.485Z,69.4
2018-12-03T06:18:51.463Z,60.3
2018-12-03T06:19:51.503Z,54.3
2018-12-03T06:20:51.502Z,63.4
2018-12-03T06:21:51.520Z,51.3
2018-12-03T06:22:51.526Z,48.3
2018-12-03T06:23:51.478Z,51.3
2018-12-03T06:24:51.473Z,54.3
2018-12-03T06:25:51.566Z,60.3
2018-12-03T06:26:51.486Z,54.3
2018-12-03T06:27:51.481Z,57.3
2018-12-03T06:28:51.487Z,51.3
2018-12-03T06:29:51.492Z,60.3
2018-12-03T06:30:51.616Z,60.3
2018-12-03T06:31:51.480Z,60.3
2018-12-03T06:32:51.520Z,60.3
2018-12-03T06:33:51.519Z,57.3
2018-12-03T06:34:51.486Z,42.3
2018-12-03T06:35:51.579Z,51.3
2018-12-03T06:36:51.488Z,60.3
2018-12-03T06:37:51.467Z,57.3
2018-12-03T06:38:51.453Z,60.3
2018-12-03T06:39:51.567Z,48.3
2018-12-03T06:40:51.504Z,48.3
2018-12-03T06:41:51.477Z,60.3
2018-12-03T06:42:51.552Z,39.3
2018-12-03T06:43:51.450Z,48.3
2018-12-03T06:44:51.543Z,51.3
2018-12-03T06:45:51.510Z,60.3
2018-12-03T06:46:51.509Z,54.3
2018-12-03T06:47:51.478Z,54.3
2018-12-03T06:48:51.549Z,42.3
2018-12-03T06:49:51.476Z,45.3
2018-12-03T06:50:51.457Z,51.3
2018-12-03T06:51:51.445Z,39.3
2018-12-03T06:52:51.548Z,42.3
2018-12-03T06:54:54.507Z,51.3
2018-12-03T06:55:54.730Z,48.3
2018-12-03T06:56:54.601Z,48.3
2018-12-03T06:57:54.536Z,33.3
2018-12-03T06:58:54.658Z,42.3
2018-12-03T06:59:54.736Z,33.3
2018-12-03T07:00:55.177Z,39.3
2018-12-03T07:01:54.992Z,42.3
2018-12-03T07:02:54.823Z,45.3
2018-12-03T07:03:54.522Z,33.3
2018-12-03T07:04:54.491Z,45.3
2018-12-03T07:05:54.560Z,45.3
2018-12-03T07:06:55.031Z,42.3
2018-12-03T07:07:54.950Z,36.3
2018-12-03T07:08:54.636Z,42.3
2018-12-03T07:09:55.714Z,39.3
2018-12-03T07:10:54.540Z,36.3
2018-12-03T07:11:57.099Z,39.3
2018-12-03T07:12:54.531Z,42.3
2018-12-03T07:13:54.483Z,36.3
2018-12-03T07:14:54.601Z,33.3
2018-12-03T07:15:54.767Z,36.3
2018-12-03T07:16:54.567Z,27.3
2018-12-03T07:17:54.493Z,21.3
2018-12-03T07:18:55.509Z,27.3
2018-12-03T07:19:56.172Z,30.3
2018-12-03T07:20:54.463Z,30.3
2018-12-03T07:21:54.468Z,27.3
2018-12-03T07:22:55.429Z,27.3
2018-12-03T07:23:54.994Z,30.3
2018-12-03T07:24:54.459Z,27.3
2018-12-03T07:25:54.950Z,30.3
2018-12-03T07:26:54.500Z,27.3
2018-12-03T07:27:55.087Z,27.3
2018-12-03T07:28:54.441Z,33.3
2018-12-03T07:29:54.520Z,36.3
2018-12-03T07:30:54.521Z,60.3
2018-12-03T07:31:54.579Z,45.3
2018-12-03T07:32:54.523Z,57.3
2018-12-03T07:33:54.587Z,48.3
2018-12-03T07:34:54.490Z,54.3
2018-12-03T07:35:54.477Z,45.3
2018-12-03T07:36:54.511Z,45.3
2018-12-03T07:37:54.514Z,48.3
2018-12-03T07:38:54.541Z,51.3
2018-12-03T07:39:54.633Z,42.3
2018-12-03T07:40:54.462Z,54.3
2018-12-03T07:41:57.736Z,57.3
2018-12-03T07:42:57.560Z,60.3
2018-12-03T07:43:54.464Z,45.3
2018-12-03T07:44:54.482Z,48.3
2018-12-03T07:45:54.521Z,45.3
2018-12-03T07:46:54.561Z,42.3
2018-12-03T07:47:54.492Z,45.3
2018-12-03T07:48:54.497Z,51.3
2018-12-03T07:49:54.461Z,42.3
2018-12-03T07:50:54.593Z,48.3
2018-12-03T07:51:54.473Z,48.3
2018-12-03T07:52:54.565Z,39.3
2018-12-03T07:53:54.480Z,45.3
2018-12-03T07:54:54.451Z,45.3
2018-12-03T07:55:54.562Z,48.3
2018-12-03T07:56:54.565Z,45.3
2018-12-03T07:57:54.532Z,51.3
2018-12-03T07:58:54.477Z,45.3
2018-12-03T07:59:54.465Z,39.3
2018-12-03T08:00:54.541Z,63.4
2018-12-03T08:01:54.627Z,51.3
2018-12-03T08:02:54.460Z,54.3
2018-12-03T08:03:54.492Z,54.3
2018-12-03T08:04:54.489Z,60.3
2018-12-03T08:05:54.429Z,60.3
2018-12-03T08:06:54.602Z,48.3
2018-12-03T08:07:54.484Z,51.3
2018-12-03T08:08:54.511Z,39.3
2018-12-03T08:09:54.490Z,48.3
2018-12-03T08:10:54.491Z,54.3
2018-12-03T08:11:54.907Z,48.3
2018-12-03T08:12:54.498Z,54.3
2018-12-03T08:13:54.499Z,54.3
2018-12-03T08:14:54.481Z,54.3
2018-12-03T08:15:54.558Z,54.3
2018-12-03T08:16:55.529Z,48.3
2018-12-03T08:17:54.563Z,51.3
2018-12-03T08:18:54.461Z,42.3
2018-12-03T08:19:57.843Z,51.3
2018-12-03T08:20:54.494Z,54.3
2018-12-03T08:21:54.601Z,51.3
2018-12-03T08:22:54.500Z,60.3
2018-12-03T08:23:54.491Z,48.3
2018-12-03T08:24:54.531Z,63.4
2018-12-03T08:25:54.591Z,69.4
2018-12-03T08:26:54.571Z,54.3
2018-12-03T08:27:54.427Z,57.3
2018-12-03T08:28:54.536Z,54.3
2018-12-03T08:29:54.468Z,51.3
2018-12-03T08:30:54.507Z,54.3
2018-12-03T08:31:54.536Z,72.4
2018-12-03T08:32:54.486Z,63.4
2018-12-03T08:33:54.457Z,60.3
2018-12-03T08:34:54.530Z,60.3
2018-12-03T08:35:54.505Z,69.4
2018-12-03T08:36:54.540Z,39.3
2018-12-03T08:37:54.522Z,66.4
2018-12-03T08:38:54.518Z,54.3
2018-12-03T08:39:54.446Z,75.4
2018-12-03T08:40:54.465Z,54.3
2018-12-03T08:41:54.488Z,57.3
2018-12-03T08:42:54.518Z,60.3
2018-12-03T08:43:54.633Z,51.3
2018-12-03T08:44:54.488Z,48.3
2018-12-03T08:45:54.495Z,54.3
2018-12-03T08:46:54.506Z,60.3
2018-12-03T08:47:54.489Z,36.3
2018-12-03T08:48:54.554Z,48.3
2018-12-03T08:49:54.437Z,63.4
2018-12-03T08:50:54.496Z,66.4
2018-12-03T08:51:54.563Z,66.4
2018-12-03T08:52:54.477Z,66.4
2018-12-03T08:53:54.502Z,69.4
2018-12-03T08:54:54.470Z,75.4
2018-12-03T08:55:54.459Z,63.4
2018-12-03T08:57:04.368Z,42.3
2018-12-03T08:57:54.467Z,60.3
2018-12-03T08:58:54.475Z,87.4
2018-12-03T08:59:54.521Z,75.4
2018-12-03T09:00:54.460Z,66.4
2018-12-03T09:01:54.483Z,75.4
2018-12-03T09:02:54.477Z,72.4
2018-12-03T09:03:54.467Z,72.4
2018-12-03T09:04:54.526Z,57.3
2018-12-03T09:05:54.482Z,69.4
2018-12-03T09:06:54.455Z,54.3
2018-12-03T09:07:54.485Z,60.3
2018-12-03T09:08:54.460Z,60.3
2018-12-03T09:09:54.456Z,66.4
2018-12-03T09:10:54.535Z,51.3
2018-12-03T09:11:54.470Z,57.3
2018-12-03T09:12:54.490Z,57.3
2018-12-03T09:13:54.480Z,75.4
2018-12-03T09:14:54.480Z,78.4
2018-12-03T09:15:54.531Z,75.4
2018-12-03T09:16:54.442Z,69.4
2018-12-03T09:17:54.471Z,69.4
2018-12-03T09:18:54.467Z,66.4
2018-12-03T09:19:54.574Z,66.4
2018-12-03T09:20:54.483Z,87.4
2018-12-03T09:21:54.460Z,66.4
2018-12-03T09:22:54.490Z,81.4
2018-12-03T09:23:54.484Z,66.4
2018-12-03T09:24:54.485Z,75.4
2018-12-03T09:25:54.592Z,84.4
2018-12-03T09:26:54.469Z,69.4
2018-12-03T09:27:54.454Z,51.3
2018-12-03T09:28:54.543Z,81.4
2018-12-03T09:29:54.473Z,66.4
2018-12-03T09:30:54.504Z,72.4
2018-12-03T09:31:54.579Z,72.4
2018-12-03T09:32:54.474Z,87.4
2018-12-03T09:33:54.478Z,69.4
2018-12-03T09:34:54.482Z,87.4
2018-12-03T09:35:54.536Z,60.3
2018-12-03T09:36:54.451Z,69.4
2018-12-03T09:37:54.477Z,75.4
2018-12-03T09:38:54.514Z,60.3
2018-12-03T09:39:54.553Z,69.4
2018-12-03T09:40:54.546Z,66.4
2018-12-03T09:41:54.475Z,66.4
2018-12-03T09:42:54.483Z,66.4
2018-12-03T09:43:54.455Z,75.4
2018-12-03T09:44:54.565Z,69.4
2018-12-03T09:45:54.447Z,75.4
2018-12-03T09:46:54.459Z,81.4
2018-12-03T09:47:55.679Z,84.4
2018-12-03T09:48:54.476Z,75.4
2018-12-03T09:49:54.480Z,75.4
2018-12-03T09:50:54.512Z,78.4
2018-12-03T09:51:54.479Z,75.4
2018-12-03T09:52:54.587Z,63.4
2018-12-03T09:53:54.532Z,75.4
2018-12-03T09:54:54.589Z,78.4
2018-12-03T09:55:54.619Z,69.4
2018-12-03T09:56:54.533Z,54.3
2018-12-03T09:57:54.523Z,66.4
2018-12-03T09:58:54.530Z,69.4
2018-12-03T09:59:54.559Z,81.4
2018-12-03T10:00:54.514Z,63.4
2018-12-03T10:01:54.530Z,60.3
2018-12-03T10:02:54.527Z,51.3
2018-12-03T10:03:54.514Z,69.4
2018-12-03T10:04:54.610Z,60.3
2018-12-03T10:05:54.561Z,48.3
2018-12-03T10:06:54.529Z,66.4
2018-12-03T10:07:54.523Z,60.3
2018-12-03T10:08:54.540Z,60.3
2018-12-03T10:09:54.538Z,51.3
2018-12-03T10:10:54.576Z,54.3
2018-12-03T10:11:54.657Z,81.4
2018-12-03T10:12:54.535Z,63.4
2018-12-03T10:13:54.506Z,69.4
2018-12-03T10:14:54.600Z,69.4
2018-12-03T10:15:54.522Z,69.4
2018-12-03T10:16:54.509Z,69.4
2018-12-03T10:17:54.593Z,48.3
2018-12-03T10:19:00.220Z,54.3
2018-12-03T10:19:54.533Z,45.3
2018-12-03T10:20:54.520Z,75.4
2018-12-03T10:21:54.604Z,63.4
2018-12-03T10:22:54.582Z,51.3
2018-12-03T10:23:54.611Z,63.4
2018-12-03T10:24:54.631Z,60.3
2018-12-03T10:25:54.539Z,51.3
2018-12-03T10:26:54.529Z,45.3
2018-12-03T10:27:54.499Z,66.4
2018-12-03T10:28:54.597Z,54.3
2018-12-03T10:29:54.529Z,60.3
2018-12-03T10:30:54.602Z,45.3
2018-12-03T10:31:54.540Z,45.3
2018-12-03T10:32:54.551Z,54.3
2018-12-03T10:33:54.504Z,51.3
2018-12-03T10:34:54.532Z,66.4
2018-12-03T10:35:54.520Z,57.3
2018-12-03T10:36:54.522Z,66.4
2018-12-03T10:37:54.576Z,63.4
2018-12-03T10:38:54.544Z,54.3
2018-12-03T10:39:54.533Z,78.4
2018-12-03T10:40:54.522Z,69.4
2018-12-03T10:41:54.520Z,75.4
2018-12-03T10:42:54.581Z,54.3
2018-12-03T10:43:54.916Z,66.4
2018-12-03T10:44:54.483Z,63.4
2018-12-03T10:45:54.531Z,78.4
2018-12-03T10:46:54.513Z,60.3
2018-12-03T10:47:54.579Z,54.3
2018-12-03T10:48:54.502Z,69.4
2018-12-03T10:49:54.591Z,60.3
2018-12-03T10:50:54.503Z,69.4
2018-12-03T10:51:54.538Z,57.3
2018-12-03T10:52:54.591Z,63.4
2018-12-03T10:53:54.587Z,42.3
2018-12-03T10:54:54.482Z,51.3
2018-12-03T10:55:54.522Z,54.3
2018-12-03T10:56:54.506Z,60.3
2018-12-03T10:57:54.525Z,57.3
2018-12-03T10:58:54.582Z,63.4
2018-12-03T10:59:54.497Z,33.3
2018-12-03T11:00:54.556Z,36.3
2018-12-03T11:01:54.649Z,51.3
2018-12-03T11:02:54.530Z,57.3
2018-12-03T11:03:54.529Z,48.3
2018-12-03T11:04:54.501Z,75.4
2018-12-03T11:05:54.522Z,63.4
2018-12-03T11:06:54.521Z,60.3
2018-12-03T11:07:54.579Z,69.4
2018-12-03T11:08:54.508Z,75.4
2018-12-03T11:09:54.729Z,33.3
2018-12-03T11:10:54.490Z,39.3
2018-12-03T11:11:54.581Z,42.3
2018-12-03T11:12:54.537Z,45.3
2018-12-03T11:13:54.521Z,30.3
2018-12-03T11:14:54.529Z,33.3
2018-12-03T11:15:54.518Z,45.3
2018-12-03T11:16:54.548Z,21.3
2018-12-03T11:17:54.501Z,21.3
2018-12-03T11:18:54.524Z,21.3
2018-12-03T11:19:54.510Z,33.3
2018-12-03T11:20:54.575Z,33.3
2018-12-03T11:21:54.480Z,42.3
2018-12-03T11:23:04.405Z,45.3
2018-12-03T11:23:54.810Z,15.4
2018-12-03T11:24:54.689Z,39.3
2018-12-03T11:25:54.512Z,39.3
2018-12-03T11:26:54.522Z,42.3
2018-12-03T11:27:54.466Z,36.3
2018-12-03T11:28:54.493Z,39.3
2018-12-03T11:29:54.822Z,30.3
2018-12-03T11:30:56.210Z,39.3
2018-12-03T11:31:54.623Z,33.3
2018-12-03T11:32:54.880Z,42.3
2018-12-03T11:33:54.746Z,48.3
2018-12-03T11:34:54.523Z,36.3
2018-12-03T11:35:54.596Z,54.3
2018-12-03T11:36:54.568Z,45.3
2018-12-03T11:37:54.482Z,42.3
2018-12-03T11:38:54.501Z,45.3
2018-12-03T11:39:54.645Z,48.3
2018-12-03T11:40:54.514Z,48.3
2018-12-03T11:41:54.497Z,33.3
2018-12-03T11:42:54.513Z,30.3
2018-12-03T11:43:54.498Z,18.3
2018-12-03T11:44:54.586Z,33.3
2018-12-03T11:45:54.489Z,36.3
2018-12-03T11:46:54.506Z,36.3
2018-12-03T11:47:54.558Z,33.3
2018-12-03T11:48:54.489Z,42.3
2018-12-03T11:49:54.472Z,42.3
2018-12-03T11:50:54.503Z,42.3
2018-12-03T11:51:54.567Z,48.3
2018-12-03T11:52:54.560Z,36.3
2018-12-03T11:53:54.513Z,60.3
2018-12-03T11:54:54.566Z,30.3
2018-12-03T11:55:54.539Z,54.3
2018-12-03T11:56:54.524Z,39.3
2018-12-03T11:57:54.522Z,42.3
2018-12-03T11:58:54.524Z,36.3
2018-12-03T11:59:54.551Z,36.3
2018-12-03T12:00:54.556Z,48.3
2018-12-03T12:01:54.517Z,51.3
2018-12-03T12:02:55.585Z,33.3
2018-12-03T12:03:54.524Z,39.3
2018-12-03T12:04:54.504Z,36.3
2018-12-03T12:05:54.464Z,48.3
2018-12-03T12:06:54.537Z,42.3
2018-12-03T12:07:54.580Z,42.3
2018-12-03T12:08:54.510Z,36.3
2018-12-03T12:09:54.493Z,33.3
2018-12-03T12:10:54.465Z,30.3
2018-12-03T12:11:54.476Z,30.3
2018-12-03T12:12:54.567Z,45.3
2018-12-03T12:13:54.527Z,42.3
2018-12-03T12:14:54.631Z,39.3
2018-12-03T12:15:54.507Z,42.3
2018-12-03T12:16:54.465Z,42.3
2018-12-03T12:17:54.501Z,51.3
2018-12-03T12:18:54.500Z,39.3
2018-12-03T12:19:54.579Z,39.3
2018-12-03T12:20:54.577Z,42.3
2018-12-03T12:21:54.478Z,42.3
2018-12-03T12:22:54.592Z,36.3
2018-12-03T12:23:54.505Z,33.3
2018-12-03T12:24:54.482Z,42.3
2018-12-03T12:25:54.509Z,27.3
2018-12-03T12:26:54.555Z,33.3
2018-12-03T12:27:54.497Z,27.3
2018-12-03T12:28:54.506Z,30.3
2018-12-03T12:29:54.510Z,27.3
2018-12-03T12:30:54.573Z,30.3
2018-12-03T12:31:54.507Z,33.3
2018-12-03T12:32:54.463Z,30.3
2018-12-03T12:33:54.520Z,12.4
2018-12-03T12:34:54.537Z,42.3
2018-12-03T12:35:54.571Z,30.3
2018-12-03T12:36:54.523Z,27.3
2018-12-03T12:37:58.054Z,30.3
2018-12-03T12:38:54.494Z,27.3
2018-12-03T12:39:54.490Z,18.3
2018-12-03T12:40:54.500Z,33.3
2018-12-03T12:41:54.490Z,18.3
2018-12-03T12:42:54.491Z,33.3
2018-12-03T12:43:54.541Z,24.3
2018-12-03T12:44:54.551Z,21.3
2018-12-03T12:45:54.484Z,18.3
2018-12-03T12:46:54.480Z,21.3
2018-12-03T12:47:54.507Z,18.3
2018-12-03T12:48:54.471Z,12.4
2018-12-03T12:49:54.563Z,9.5
2018-12-03T12:50:54.512Z,12.4
2018-12-03T12:51:54.493Z,15.4
2018-12-03T12:52:54.504Z,15.4
2018-12-03T12:53:54.512Z,30.3
2018-12-03T12:54:54.515Z,15.4
2018-12-03T12:55:54.515Z,27.3
2018-12-03T12:56:54.498Z,21.3
2018-12-03T12:57:54.478Z,9.5
2018-12-03T12:58:54.504Z,3.9
2018-12-03T12:59:54.535Z,18.3
2018-12-03T13:00:54.476Z,12.4
2018-12-03T13:01:54.493Z,12.4
2018-12-03T13:02:54.551Z,21.3
2018-12-03T13:03:54.489Z,21.3
2018-12-03T13:04:54.563Z,21.3
2018-12-03T13:05:54.452Z,21.3
2018-12-03T13:06:54.485Z,12.4
2018-12-03T13:07:54.582Z,15.4
2018-12-03T13:08:54.540Z,24.3
2018-12-03T13:09:54.486Z,24.3
2018-12-03T13:10:54.455Z,12.4
2018-12-03T13:11:54.529Z,12.4
2018-12-03T13:12:54.558Z,12.4
2018-12-03T13:13:54.489Z,15.4
2018-12-03T13:14:54.490Z,18.3
2018-12-03T13:15:54.535Z,12.4
2018-12-03T13:16:54.519Z,12.4
2018-12-03T13:17:54.564Z,12.4
2018-12-03T13:18:54.477Z,6.6
2018-12-03T13:19:54.520Z,6.6